Time;durP1;ratioP1;P1;durP2;ratioP2;P2;SDS_P1;SDS_P2;PMS_P1;PMS_P2;Temp;Humidity;BMP_temperature;BMP_pressure;BME280_temperature;BME280_humidity;BME280_pressure;Samples;Min_cycle;Max_cycle;Signal;HPM_P1;HPM_P2
2021/04/24 00:01:38;;;;;;;9.38;2.10;;;3.30;69.30;;;;;;5055498;28;20041;-75
2021/04/24 00:04:05;;;;;;;4.25;2.33;;;3.30;69.80;;;;;;5055315;28;20453;-76
2021/04/24 00:06:31;;;;;;;8.95;3.05;;;3.20;70.00;;;;;;5055346;28;20028;-76
2021/04/24 00:08:59;;;;;;;5.40;2.00;;;3.10;70.30;;;;;;5063435;28;20357;-76
2021/04/24 00:11:26;;;;;;;5.97;2.38;;;3.00;71.00;;;;;;5066822;28;20056;-76
2021/04/24 00:13:53;;;;;;;4.20;2.08;;;3.10;71.90;;;;;;5054735;28;20029;-76
2021/04/24 00:16:20;;;;;;;6.03;2.33;;;3.10;72.10;;;;;;5054896;28;20029;-75
2021/04/24 00:18:47;;;;;;;5.85;2.35;;;3.00;72.60;;;;;;5074371;28;20032;-76
2021/04/24 00:21:14;;;;;;;6.22;2.40;;;2.90;72.50;;;;;;5071917;28;20040;-76
2021/04/24 00:23:40;;;;;;;5.45;2.72;;;2.90;73.10;;;;;;5066266;28;20047;-77
2021/04/24 00:26:07;;;;;;;6.95;2.83;;;2.90;73.20;;;;;;5058871;28;20032;-76
2021/04/24 00:28:33;;;;;;;5.72;2.92;;;3.00;74.00;;;;;;5074467;28;20028;-76
2021/04/24 00:31:00;;;;;;;6.93;3.30;;;2.80;74.00;;;;;;5074214;28;20118;-76
2021/04/24 00:33:26;;;;;;;8.07;3.13;;;2.70;75.70;;;;;;5055835;28;20052;-76
2021/04/24 00:35:52;;;;;;;8.02;3.15;;;2.80;76.50;;;;;;5067551;28;20036;-75
2021/04/24 00:38:19;;;;;;;5.28;2.92;;;2.70;76.70;;;;;;5054682;28;20382;-76
2021/04/24 00:40:46;;;;;;;6.75;3.10;;;2.80;77.70;;;;;;5054095;28;20466;-76
2021/04/24 00:43:14;;;;;;;6.43;3.03;;;3.00;77.40;;;;;;5054463;28;20041;-76
2021/04/24 00:45:40;;;;;;;7.60;2.78;;;3.00;76.90;;;;;;5052307;28;20032;-76
2021/04/24 00:48:07;;;;;;;6.88;3.08;;;3.10;77.40;;;;;;5067521;28;20036;-76
2021/04/24 00:50:36;;;;;;;8.63;3.03;;;3.00;77.50;;;;;;5055876;28;20049;-76
2021/04/24 00:53:04;;;;;;;6.15;2.90;;;3.00;77.30;;;;;;5066241;28;20053;-76
2021/04/24 00:55:31;;;;;;;8.35;3.33;;;3.00;78.10;;;;;;5054474;28;20028;-76
2021/04/24 00:57:59;;;;;;;4.60;2.95;;;3.00;78.50;;;;;;5053968;28;20051;-76
2021/04/24 01:00:25;;;;;;;7.32;3.55;;;2.80;79.00;;;;;;5054273;28;20056;-76
2021/04/24 01:02:53;;;;;;;8.18;3.85;;;2.60;80.20;;;;;;5054028;28;20032;-75
2021/04/24 01:05:26;;;;;;;11.35;3.90;;;2.50;81.40;;;;;;5062417;28;20032;-75
2021/04/24 01:07:52;;;;;;;5.72;3.30;;;2.60;82.80;;;;;;5057636;28;20028;-76
2021/04/24 01:10:20;;;;;;;7.00;3.85;;;2.60;83.90;;;;;;5063233;28;20033;-76
2021/04/24 01:12:47;;;;;;;6.60;3.88;;;2.70;85.00;;;;;;5064514;28;20497;-77
2021/04/24 01:15:17;;;;;;;7.03;3.47;;;2.80;85.20;;;;;;5053982;28;20033;-76
2021/04/24 01:17:44;;;;;;;6.93;3.40;;;2.90;85.50;;;;;;5053521;28;20032;-77
2021/04/24 01:20:12;;;;;;;10.82;4.57;;;2.90;86.10;;;;;;5053932;28;20040;-77
2021/04/24 01:22:40;;;;;;;11.82;3.97;;;3.00;85.50;;;;;;5068084;28;20041;-77
2021/04/24 01:25:09;;;;;;;8.18;4.05;;;3.00;86.10;;;;;;5053845;28;20033;-77
2021/04/24 01:27:35;;;;;;;8.63;5.10;;;3.00;86.60;;;;;;5067763;28;20033;-76
2021/04/24 01:30:04;;;;;;;9.43;3.85;;;2.90;86.90;;;;;;5057292;28;20043;-77
2021/04/24 01:32:30;;;;;;;6.57;3.65;;;2.90;88.30;;;;;;5052988;28;20152;-77
2021/04/24 01:34:56;;;;;;;9.07;3.97;;;2.80;88.80;;;;;;5069797;28;20035;-76
2021/04/24 01:37:22;;;;;;;10.77;3.92;;;2.70;89.40;;;;;;5053103;28;20056;-77
2021/04/24 01:39:49;;;;;;;9.75;4.57;;;2.70;90.50;;;;;;5053270;28;20470;-77
2021/04/24 01:42:15;;;;;;;9.43;4.35;;;2.70;90.80;;;;;;5053494;28;20037;-74
2021/04/24 01:44:41;;;;;;;10.57;4.18;;;2.60;91.20;;;;;;5053142;28;20359;-78
2021/04/24 01:47:07;;;;;;;9.07;4.07;;;2.60;91.70;;;;;;5060292;28;20033;-75
2021/04/24 01:49:33;;;;;;;11.30;4.20;;;2.60;92.20;;;;;;5053394;28;20374;-75
2021/04/24 01:52:00;;;;;;;8.43;4.45;;;2.50;93.20;;;;;;5054146;28;20052;-75
2021/04/24 01:54:26;;;;;;;9.82;5.55;;;2.50;93.80;;;;;;5072369;28;20028;-76
2021/04/24 01:56:55;;;;;;;8.85;4.72;;;2.50;94.40;;;;;;5052918;28;20079;-76
2021/04/24 01:59:25;;;;;;;8.52;4.18;;;2.50;95.10;;;;;;5070840;28;20039;-76
2021/04/24 02:01:54;;;;;;;10.75;3.85;;;2.40;95.10;;;;;;5054685;28;20059;-76
2021/04/24 02:04:22;;;;;;;12.23;4.93;;;2.30;96.00;;;;;;5071327;28;20040;-76
2021/04/24 02:06:48;;;;;;;10.38;5.53;;;2.30;97.40;;;;;;5053594;28;20029;-78
2021/04/24 02:09:17;;;;;;;9.85;4.60;;;2.40;98.50;;;;;;5053058;28;20390;-77
2021/04/24 02:12:08;;;;;;;15.68;6.30;;;2.40;98.90;;;;;;5043914;28;20047;-78
2021/04/24 02:14:49;;;;;;;9.75;5.10;;;2.50;99.10;;;;;;5057894;28;20036;-78
2021/04/24 02:17:19;;;;;;;11.30;5.22;;;2.50;99.20;;;;;;5054050;28;20029;-78
2021/04/24 02:19:47;;;;;;;10.07;4.70;;;2.60;99.80;;;;;;5052398;28;20070;-77
2021/04/24 02:22:13;;;;;;;11.07;4.88;;;2.60;99.50;;;;;;5052167;28;20032;-78
2021/04/24 02:24:55;;;;;;;10.48;6.28;;;2.50;99.50;;;;;;5052226;28;20029;-74
2021/04/24 02:27:22;;;;;;;;;;;2.40;99.80;;;;;;5059279;28;20031;-75
2021/04/24 02:29:49;;;;;;;8.07;4.72;;;2.40;99.90;;;;;;5051894;28;19931;-76
2021/04/24 02:32:16;;;;;;;13.45;5.18;;;2.40;99.90;;;;;;5051803;28;20482;-75
2021/04/24 02:34:45;;;;;;;12.25;4.95;;;2.30;99.90;;;;;;5051545;28;20744;-75
2021/04/24 02:37:12;;;;;;;8.80;4.80;;;2.20;99.90;;;;;;5052696;28;20029;-76
2021/04/24 02:39:42;;;;;;;9.40;4.57;;;2.20;99.90;;;;;;5052580;28;20045;-76
2021/04/24 02:42:12;;;;;;;12.90;4.90;;;2.20;99.90;;;;;;5060423;28;20037;-77
2021/04/24 02:44:40;;;;;;;8.45;5.30;;;2.20;99.90;;;;;;5052488;28;20029;-76
2021/04/24 02:47:06;;;;;;;8.27;4.60;;;2.20;99.90;;;;;;5050590;28;20378;-76
2021/04/24 02:49:33;;;;;;;9.57;4.57;;;2.20;99.90;;;;;;5052425;28;20025;-76
2021/04/24 02:52:01;;;;;;;10.07;5.10;;;2.10;99.90;;;;;;5058886;28;20045;-76
2021/04/24 02:54:27;;;;;;;12.00;4.80;;;2.10;99.90;;;;;;5067599;28;20025;-76
2021/04/24 02:56:54;;;;;;;10.18;4.78;;;2.00;99.90;;;;;;5051939;28;20033;-76
2021/04/24 02:59:21;;;;;;;12.00;4.88;;;1.90;99.90;;;;;;5052234;28;20033;-76
2021/04/24 03:01:48;;;;;;;12.55;6.07;;;1.90;99.90;;;;;;5051620;28;20044;-76
2021/04/24 03:04:16;;;;;;;12.15;5.18;;;1.80;99.90;;;;;;5052296;28;20097;-76
2021/04/24 03:06:43;;;;;;;11.63;4.70;;;1.90;99.90;;;;;;5051686;28;20040;-76
2021/04/24 03:09:09;;;;;;;10.63;4.60;;;1.90;99.90;;;;;;5065202;28;20040;-75
2021/04/24 03:11:37;;;;;;;9.13;4.72;;;1.90;99.90;;;;;;5051462;28;20052;-77
2021/04/24 03:14:04;;;;;;;10.80;5.30;;;1.90;99.90;;;;;;5051878;28;20041;-78
2021/04/24 03:16:31;;;;;;;9.25;5.05;;;2.00;99.90;;;;;;5052042;28;20029;-77
2021/04/24 03:18:57;;;;;;;11.30;5.20;;;2.00;99.90;;;;;;5066011;28;20040;-77
2021/04/24 03:21:25;;;;;;;10.30;4.97;;;2.00;99.90;;;;;;5050221;28;20048;-77
2021/04/24 03:23:52;;;;;;;10.50;5.45;;;2.10;99.90;;;;;;5051605;28;20044;-77
2021/04/24 03:26:19;;;;;;;10.38;4.88;;;2.10;99.90;;;;;;5052061;28;20528;-77
2021/04/24 03:28:45;;;;;;;10.27;5.13;;;2.10;99.90;;;;;;5050425;28;20041;-77
2021/04/24 03:31:12;;;;;;;12.32;5.05;;;2.10;99.90;;;;;;5050699;28;20059;-77
2021/04/24 03:33:39;;;;;;;11.93;5.00;;;2.00;99.90;;;;;;5051894;28;20053;-77
2021/04/24 03:36:06;;;;;;;10.93;5.45;;;2.10;99.90;;;;;;5057871;28;20036;-77
2021/04/24 03:38:32;;;;;;;14.98;4.88;;;2.20;99.90;;;;;;5061020;28;20040;-77
2021/04/24 03:40:59;;;;;;;10.15;4.95;;;2.20;99.90;;;;;;5063285;28;20028;-77
2021/04/24 03:43:25;;;;;;;10.55;5.30;;;2.20;99.90;;;;;;5060681;28;20033;-77
2021/04/24 03:45:51;;;;;;;9.55;4.68;;;2.10;99.90;;;;;;5068180;28;20496;-76
2021/04/24 03:48:17;;;;;;;12.75;5.60;;;2.10;99.90;;;;;;5055470;28;20040;-77
2021/04/24 03:50:43;;;;;;;9.75;4.90;;;2.00;99.90;;;;;;5056036;28;20033;-77
2021/04/24 03:53:09;;;;;;;11.07;5.63;;;2.00;99.90;;;;;;5061436;28;20040;-77
2021/04/24 03:55:36;;;;;;;8.70;5.07;;;2.00;99.90;;;;;;5067846;28;20029;-77
2021/04/24 03:58:02;;;;;;;9.82;4.95;;;2.00;99.90;;;;;;5051323;28;20382;-74
2021/04/24 04:00:30;;;;;;;15.32;5.25;;;1.90;99.90;;;;;;5064806;28;20033;-75
2021/04/24 04:03:02;;;;;;;7.43;4.40;;;1.90;99.90;;;;;;5069128;28;20049;-76
2021/04/24 04:05:31;;;;;;;7.43;4.70;;;1.90;99.90;;;;;;5052993;28;20036;-76
2021/04/24 04:07:59;;;;;;;11.95;4.53;;;1.80;99.90;;;;;;5051388;28;20029;-76
2021/04/24 04:10:26;;;;;;;11.02;4.20;;;1.80;99.90;;;;;;5051503;28;20044;-76
2021/04/24 04:12:54;;;;;;;8.15;4.47;;;1.80;99.90;;;;;;5050943;28;20044;-76
2021/04/24 04:15:23;;;;;;;9.32;4.90;;;1.70;99.90;;;;;;5055528;28;20033;-77
2021/04/24 04:18:05;;;;;;;7.90;4.35;;;1.60;99.90;;;;;;5058954;28;20037;-77
2021/04/24 04:20:32;;;;;;;6.82;3.92;;;1.60;99.90;;;;;;5051257;28;20036;-77
2021/04/24 04:22:58;;;;;;;9.07;4.70;;;1.60;99.90;;;;;;5054152;28;20055;-76
2021/04/24 04:25:26;;;;;;;10.20;4.70;;;1.60;99.90;;;;;;5066403;28;20380;-75
2021/04/24 04:27:53;;;;;;;10.85;4.47;;;1.70;99.90;;;;;;5063611;28;20035;-75
2021/04/24 04:30:21;;;;;;;12.60;5.43;;;1.70;99.90;;;;;;5067455;28;20397;-76
2021/04/24 04:32:48;;;;;;;12.75;5.32;;;1.70;99.90;;;;;;5054116;28;20049;-76
2021/04/24 04:35:15;;;;;;;9.73;4.57;;;1.70;99.90;;;;;;5071966;28;20501;-76
2021/04/24 04:37:42;;;;;;;8.27;4.75;;;1.70;99.90;;;;;;5054883;28;20033;-76
2021/04/24 04:40:11;;;;;;;9.48;4.22;;;1.80;99.90;;;;;;5070227;28;20029;-76
2021/04/24 04:42:37;;;;;;;13.63;5.72;;;1.80;99.90;;;;;;5054561;28;20032;-76
2021/04/24 04:45:06;;;;;;;11.27;5.47;;;1.80;99.90;;;;;;5068861;28;20044;-76
2021/04/24 04:47:33;;;;;;;11.10;5.10;;;1.90;99.90;;;;;;5058378;28;20029;-76
2021/04/24 04:49:59;;;;;;;9.70;4.75;;;2.00;99.90;;;;;;5053920;28;20037;-76
2021/04/24 04:52:25;;;;;;;8.30;4.38;;;2.00;99.90;;;;;;5054256;28;20037;-76
2021/04/24 04:54:51;;;;;;;7.72;4.55;;;2.10;99.90;;;;;;5053935;28;20382;-75
2021/04/24 04:57:18;;;;;;;12.15;5.47;;;2.20;99.90;;;;;;5065395;28;20029;-75
2021/04/24 04:59:44;;;;;;;8.43;5.05;;;2.60;99.90;;;;;;5053650;28;20037;-76
2021/04/24 05:02:10;;;;;;;8.95;4.50;;;3.00;99.90;;;;;;5054250;28;20039;-76
2021/04/24 05:04:36;;;;;;;10.90;4.47;;;3.50;99.90;;;;;;5054190;28;20060;-76
2021/04/24 05:07:03;;;;;;;10.52;5.45;;;4.00;99.90;;;;;;5065852;28;20035;-76
2021/04/24 05:09:29;;;;;;;10.35;4.82;;;4.50;97.80;;;;;;5055680;28;20037;-77
2021/04/24 05:11:56;;;;;;;10.05;4.70;;;5.10;95.20;;;;;;5061746;28;20040;-77
2021/04/24 05:14:22;;;;;;;9.80;4.53;;;5.90;91.00;;;;;;5054094;28;20025;-76
2021/04/24 05:16:49;;;;;;;8.00;5.15;;;6.60;87.10;;;;;;5053712;28;20036;-76
2021/04/24 05:19:15;;;;;;;10.38;4.70;;;7.40;80.20;;;;;;5067535;28;20032;-76
2021/04/24 05:21:41;;;;;;;9.50;5.53;;;7.50;77.20;;;;;;5055586;28;20044;-76
2021/04/24 05:24:08;;;;;;;12.07;5.25;;;7.60;75.80;;;;;;5053089;28;20430;-76
2021/04/24 05:26:34;;;;;;;10.05;4.72;;;8.00;74.20;;;;;;5053844;28;20048;-77
2021/04/24 05:29:00;;;;;;;9.73;4.75;;;8.60;71.50;;;;;;5053892;28;20056;-76
2021/04/24 05:31:27;;;;;;;8.40;5.47;;;9.00;69.30;;;;;;5053282;28;20134;-76
2021/04/24 05:33:53;;;;;;;11.80;4.95;;;9.20;68.70;;;;;;5052755;28;20045;-77
2021/04/24 05:36:20;;;;;;;8.55;5.03;;;9.40;67.00;;;;;;5053547;28;20059;-76
2021/04/24 05:38:50;;;;;;;7.97;4.85;;;9.40;66.70;;;;;;5053074;28;20029;-77
2021/04/24 05:41:21;;;;;;;8.27;5.47;;;9.20;66.90;;;;;;5052992;28;20040;-77
2021/04/24 05:43:52;;;;;;;7.15;5.25;;;9.00;67.30;;;;;;5053102;28;20029;-77
2021/04/24 05:46:19;;;;;;;11.10;4.93;;;8.90;67.20;;;;;;5053535;28;20025;-77
2021/04/24 05:48:46;;;;;;;12.10;5.93;;;9.20;65.80;;;;;;5052578;28;20044;-78
2021/04/24 05:51:12;;;;;;;11.85;5.80;;;8.80;67.30;;;;;;5067624;28;20044;-78
2021/04/24 05:53:40;;;;;;;7.53;5.07;;;8.70;67.10;;;;;;5064197;28;20048;-76
2021/04/24 05:56:06;;;;;;;8.65;5.88;;;9.00;67.00;;;;;;5059705;28;20481;-77
2021/04/24 05:58:33;;;;;;;7.15;4.90;;;9.40;65.80;;;;;;5053507;28;20029;-76
2021/04/24 06:01:00;;;;;;;14.32;5.80;;;9.70;64.30;;;;;;5059878;28;20037;-77
2021/04/24 06:03:26;;;;;;;10.18;5.18;;;9.60;64.20;;;;;;5053009;28;20037;-77
2021/04/24 06:05:52;;;;;;;8.75;5.25;;;9.60;64.20;;;;;;5052513;28;20025;-77
2021/04/24 06:08:18;;;;;;;10.27;4.85;;;10.00;63.20;;;;;;5053118;28;20037;-77
2021/04/24 06:10:45;;;;;;;8.07;4.95;;;10.50;61.80;;;;;;5052927;28;20053;-77
2021/04/24 06:13:11;;;;;;;7.65;4.93;;;10.30;61.50;;;;;;5052418;28;20044;-77
2021/04/24 06:15:37;;;;;;;10.30;5.30;;;10.50;60.80;;;;;;5055497;28;20029;-76
2021/04/24 06:18:04;;;;;;;8.32;5.13;;;10.30;62.00;;;;;;5059180;28;20029;-76
2021/04/24 06:20:31;;;;;;;12.55;5.90;;;10.40;61.30;;;;;;5054045;28;20056;-76
2021/04/24 06:22:57;;;;;;;8.40;5.57;;;10.00;62.30;;;;;;5069175;28;20041;-77
2021/04/24 06:25:24;;;;;;;10.40;5.43;;;10.40;61.00;;;;;;5052966;28;20466;-76
2021/04/24 06:27:51;;;;;;;10.45;5.85;;;10.60;61.10;;;;;;5052206;28;20040;-77
2021/04/24 06:30:19;;;;;;;9.20;6.03;;;10.90;60.00;;;;;;5052366;28;20039;-76
2021/04/24 06:32:47;;;;;;;8.23;5.22;;;11.30;59.30;;;;;;5061384;28;20104;-76
2021/04/24 06:35:15;;;;;;;8.27;5.45;;;11.90;57.80;;;;;;5057314;28;20067;-77
2021/04/24 06:37:41;;;;;;;10.65;5.85;;;11.70;57.50;;;;;;5052389;28;20363;-76
2021/04/24 06:40:10;;;;;;;9.55;5.88;;;11.80;57.60;;;;;;5060661;28;20025;-75
2021/04/24 06:42:37;;;;;;;8.68;5.82;;;11.90;56.30;;;;;;5063345;28;20096;-76
2021/04/24 06:45:05;;;;;;;9.15;5.75;;;12.20;56.50;;;;;;5058824;28;20025;-76
2021/04/24 06:47:32;;;;;;;8.88;5.43;;;12.10;56.50;;;;;;5069923;28;20048;-77
2021/04/24 06:49:58;;;;;;;7.53;4.95;;;12.10;55.70;;;;;;5063661;28;20029;-76
2021/04/24 06:52:25;;;;;;;8.00;4.90;;;12.40;56.00;;;;;;5070599;28;20110;-75
2021/04/24 06:54:51;;;;;;;12.38;5.85;;;13.20;54.20;;;;;;5056164;28;20040;-76
2021/04/24 06:57:18;;;;;;;9.27;5.10;;;14.00;53.40;;;;;;5067391;28;20045;-76
2021/04/24 06:59:44;;;;;;;9.55;6.30;;;13.50;53.50;;;;;;5062737;28;20020;-75
2021/04/24 07:02:11;;;;;;;8.45;5.05;;;13.10;54.70;;;;;;5051766;28;20466;-76
2021/04/24 07:04:38;;;;;;;7.97;4.97;;;13.00;54.20;;;;;;5059061;28;20036;-76
2021/04/24 07:07:05;;;;;;;9.38;5.30;;;13.00;54.00;;;;;;5068412;28;20032;-76
2021/04/24 07:09:31;;;;;;;8.70;4.93;;;13.60;53.50;;;;;;5071870;28;20029;-78
2021/04/24 07:11:58;;;;;;;6.72;4.75;;;13.60;52.90;;;;;;5054219;28;20041;-77
2021/04/24 07:14:24;;;;;;;10.02;4.90;;;14.40;51.90;;;;;;5060925;28;20029;-76
2021/04/24 07:16:50;;;;;;;7.53;5.10;;;13.60;53.40;;;;;;5070340;28;20032;-76
2021/04/24 07:19:17;;;;;;;9.68;5.30;;;13.10;54.40;;;;;;5070099;28;20036;-77
2021/04/24 07:21:44;;;;;;;6.82;5.28;;;13.40;53.60;;;;;;5070341;28;20028;-76
2021/04/24 07:24:11;;;;;;;11.80;6.40;;;13.90;52.10;;;;;;5068634;28;20036;-77
2021/04/24 07:26:38;;;;;;;9.35;5.43;;;14.00;52.50;;;;;;5070658;28;20374;-78
2021/04/24 07:29:05;;;;;;;7.50;5.55;;;15.30;50.20;;;;;;5058992;28;20056;-78
2021/04/24 07:31:32;;;;;;;10.25;5.82;;;14.80;50.00;;;;;;5051733;28;20033;-77
2021/04/24 07:33:59;;;;;;;9.90;5.40;;;14.00;51.80;;;;;;5058849;28;20045;-78
2021/04/24 07:36:27;;;;;;;6.97;5.35;;;13.80;52.10;;;;;;5053006;28;20470;-77
2021/04/24 07:38:55;;;;;;;10.00;5.70;;;14.40;51.30;;;;;;5064319;28;20045;-77
2021/04/24 07:41:22;;;;;;;8.70;5.20;;;15.10;51.40;;;;;;5051491;28;20025;-79
2021/04/24 07:43:48;;;;;;;8.02;5.43;;;14.90;50.10;;;;;;5063606;28;20044;-79
2021/04/24 07:46:15;;;;;;;9.52;5.70;;;15.10;50.90;;;;;;5059321;28;20029;-78
2021/04/24 07:48:41;;;;;;;8.75;6.40;;;16.90;48.10;;;;;;5051718;28;20029;-79
2021/04/24 07:51:07;;;;;;;10.77;6.57;;;16.40;47.50;;;;;;5055183;28;20035;-79
2021/04/24 07:53:33;;;;;;;11.05;6.95;;;15.40;49.60;;;;;;5055837;28;20037;-79
2021/04/24 07:55:59;;;;;;;9.27;6.15;;;15.50;49.60;;;;;;5057862;28;20490;-79
2021/04/24 07:58:26;;;;;;;9.10;5.68;;;16.50;50.60;;;;;;5055679;28;20029;-80
2021/04/24 08:00:52;;;;;;;10.88;5.30;;;16.60;46.70;;;;;;5066292;28;20386;-79
2021/04/24 08:03:18;;;;;;;8.82;6.15;;;16.10;48.20;;;;;;5059463;28;20040;-80
2021/04/24 08:05:44;;;;;;;14.80;6.53;;;14.50;50.50;;;;;;5075458;28;20029;-80
2021/04/24 08:08:11;;;;;;;11.95;6.30;;;14.10;50.90;;;;;;5057992;28;20045;-79
2021/04/24 08:10:37;;;;;;;8.63;5.40;;;15.10;51.10;;;;;;5068773;28;20036;-79
2021/04/24 08:13:03;;;;;;;14.63;7.18;;;15.40;49.10;;;;;;5054939;28;20041;-79
2021/04/24 08:15:31;;;;;;;8.43;5.57;;;15.90;49.20;;;;;;5055324;28;20386;-78
2021/04/24 08:17:57;;;;;;;10.48;5.97;;;15.60;49.50;;;;;;5054818;28;20040;-78
2021/04/24 08:20:24;;;;;;;7.78;5.60;;;16.10;48.60;;;;;;5054988;28;20032;-80
2021/04/24 08:22:50;;;;;;;10.45;6.70;;;16.30;47.90;;;;;;5054526;28;20052;-79
2021/04/24 08:25:17;;;;;;;11.10;6.15;;;16.00;48.10;;;;;;5068267;28;20454;-78
2021/04/24 08:27:43;;;;;;;13.13;6.72;;;15.80;48.70;;;;;;5060276;28;20032;-80
2021/04/24 08:30:13;;;;;;;9.52;6.93;;;15.70;49.70;;;;;;5054398;28;20509;-77
2021/04/24 08:32:41;;;;;;;10.98;6.18;;;15.90;49.00;;;;;;5054795;28;20059;-80
2021/04/24 08:35:08;;;;;;;7.38;5.82;;;16.30;47.70;;;;;;5053921;28;20383;-79
2021/04/24 08:37:35;;;;;;;10.13;5.65;;;15.70;48.40;;;;;;5074546;28;20032;-80
2021/04/24 08:40:04;;;;;;;10.27;5.78;;;16.20;47.60;;;;;;5059698;28;20029;-79
2021/04/24 08:42:31;;;;;;;8.48;5.18;;;15.40;48.60;;;;;;5067707;28;20033;-77
2021/04/24 08:44:58;;;;;;;10.70;5.85;;;16.20;47.70;;;;;;5054083;28;20036;-77
2021/04/24 08:47:26;;;;;;;10.75;5.75;;;16.60;47.10;;;;;;5062992;28;20028;-76
2021/04/24 08:49:54;;;;;;;11.20;5.82;;;16.40;47.30;;;;;;5069178;28;20383;-77
2021/04/24 08:52:22;;;;;;;9.48;6.57;;;16.40;47.00;;;;;;5057366;28;20490;-79
2021/04/24 08:54:49;;;;;;;10.63;5.57;;;16.20;47.50;;;;;;5053991;28;20045;-79
2021/04/24 08:57:16;;;;;;;9.20;5.82;;;16.30;46.80;;;;;;5055005;28;20037;-80
2021/04/24 08:59:43;;;;;;;11.80;5.93;;;15.90;48.00;;;;;;5054350;28;20036;-79
2021/04/24 09:02:09;;;;;;;17.20;6.25;;;17.30;46.20;;;;;;5053579;28;20029;-79
2021/04/24 09:04:37;;;;;;;11.73;6.88;;;17.70;45.90;;;;;;5054359;28;20056;-80
2021/04/24 09:07:04;;;;;;;11.25;5.90;;;16.90;46.20;;;;;;5053011;28;20389;-79
2021/04/24 09:09:31;;;;;;;9.30;6.07;;;16.60;47.00;;;;;;5053785;28;20040;-80
2021/04/24 09:12:01;;;;;;;11.45;5.50;;;17.10;45.90;;;;;;5053701;28;20044;-80
2021/04/24 09:14:30;;;;;;;9.00;5.55;;;16.60;46.40;;;;;;5053897;28;20041;-79
2021/04/24 09:16:56;;;;;;;10.52;5.90;;;17.00;45.60;;;;;;5052515;28;20048;-79
2021/04/24 09:19:35;;;;;;;8.23;5.45;;;17.20;45.70;;;;;;5054129;28;20040;-79
2021/04/24 09:22:18;;;;;;;8.90;5.70;;;17.70;44.50;;;;;;5068261;28;20036;-77
2021/04/24 09:24:47;;;;;;;11.20;5.50;;;17.40;45.40;;;;;;5054084;28;20035;-79
2021/04/24 09:27:14;;;;;;;7.47;5.00;;;17.90;44.90;;;;;;5071644;28;20036;-78
2021/04/24 09:29:40;;;;;;;10.95;5.22;;;17.80;44.50;;;;;;5055583;28;20029;-79
2021/04/24 09:32:21;;;;;;;8.88;5.63;;;17.60;44.20;;;;;;5053098;28;20052;-79
2021/04/24 09:34:52;;;;;;;9.63;5.60;;;17.50;44.80;;;;;;5053618;28;20048;-80
2021/04/24 09:37:21;;;;;;;10.65;5.85;;;16.70;45.00;;;;;;5052515;28;20037;-78
2021/04/24 09:39:52;;;;;;;9.85;5.30;;;16.80;44.90;;;;;;5054083;28;20463;-79
2021/04/24 09:42:38;;;;;;;12.80;5.20;;;17.50;44.50;;;;;;5053650;28;20029;-79
2021/04/24 09:45:11;;;;;;;9.77;5.57;;;16.90;44.90;;;;;;5070636;28;20032;-79
2021/04/24 09:47:43;;;;;;;9.73;5.18;;;17.20;44.20;;;;;;5064599;28;20029;-80
2021/04/24 09:50:12;;;;;;;7.85;5.47;;;16.70;44.40;;;;;;5069930;28;20484;-80
2021/04/24 09:52:39;;;;;;;9.60;4.87;;;16.50;45.20;;;;;;5071909;28;20032;-79
2021/04/24 09:55:06;;;;;;;9.18;5.10;;;18.10;44.20;;;;;;5071307;28;20377;-79
2021/04/24 09:57:34;;;;;;;9.18;5.22;;;18.90;42.30;;;;;;5067157;28;20366;-80
2021/04/24 10:00:15;;;;;;;9.77;5.35;;;17.90;42.80;;;;;;5069232;28;20474;-81
2021/04/24 10:02:44;;;;;;;10.15;4.28;;;17.40;43.40;;;;;;5059818;28;20033;-81
2021/04/24 10:05:14;;;;;;;8.07;4.85;;;16.80;44.70;;;;;;5053251;28;20037;-80
2021/04/24 10:07:46;;;;;;;8.43;4.53;;;17.40;43.10;;;;;;5067855;28;20564;-81
2021/04/24 10:10:16;;;;;;;7.90;4.95;;;17.60;43.00;;;;;;5051718;28;20386;-81
2021/04/24 10:12:59;;;;;;;6.45;4.55;;;17.00;43.60;;;;;;5067947;28;20041;-83
2021/04/24 10:15:41;;;;;;;8.90;5.22;;;16.60;44.30;;;;;;5065690;28;20051;-82
2021/04/24 10:18:11;;;;;;;8.95;5.15;;;16.30;44.80;;;;;;5060747;28;20037;-82
2021/04/24 10:20:38;;;;;;;10.30;4.90;;;16.10;45.00;;;;;;5052747;28;20033;-81
2021/04/24 10:23:08;;;;;;;7.95;4.93;;;16.70;44.80;;;;;;5062874;28;20056;-82
2021/04/24 10:25:37;;;;;;;10.77;4.95;;;17.20;44.20;;;;;;5052682;28;20025;-83
2021/04/24 10:28:04;;;;;;;8.98;5.03;;;17.00;44.10;;;;;;5051294;28;20386;-81
2021/04/24 10:30:30;;;;;;;8.85;4.88;;;16.80;44.20;;;;;;5052642;28;20036;-81
2021/04/24 10:32:57;;;;;;;7.05;4.68;;;16.70;43.70;;;;;;5050856;28;20049;-81
2021/04/24 10:35:27;;;;;;;8.32;4.07;;;16.80;43.90;;;;;;5052596;28;20033;-82
2021/04/24 10:37:54;;;;;;;9.87;4.50;;;17.00;44.30;;;;;;5052521;28;20394;-80
2021/04/24 10:40:21;;;;;;;6.68;4.10;;;17.20;43.80;;;;;;5052799;28;20033;-82
2021/04/24 10:42:53;;;;;;;7.22;4.68;;;17.10;42.10;;;;;;5052658;28;20044;-82
2021/04/24 10:45:33;;;;;;;8.40;4.53;;;16.80;42.20;;;;;;5052215;28;20036;-80
2021/04/24 10:48:00;;;;;;;;;;;16.80;42.10;;;;;;5052579;28;20060;-79
2021/04/24 10:50:38;;;;;;;9.88;4.32;;;16.60;42.90;;;;;;5052772;28;19915;-80
2021/04/24 10:53:33;;;;;;;7.63;3.83;;;16.90;43.10;;;;;;5052140;28;20048;-79
2021/04/24 10:56:01;;;;;;;8.32;4.53;;;17.00;43.20;;;;;;5040173;28;20341;-82
2021/04/24 10:58:29;;;;;;;5.97;3.97;;;17.00;43.10;;;;;;5052314;28;20462;-80
2021/04/24 11:00:58;;;;;;;8.57;3.97;;;17.40;42.70;;;;;;5051904;28;20044;-82
2021/04/24 11:03:42;;;;;;;7.15;3.75;;;17.50;41.50;;;;;;5052416;28;20041;-83
2021/04/24 11:06:12;;;;;;;9.73;4.45;;;17.50;41.50;;;;;;5051765;28;20040;-80
2021/04/24 11:08:40;;;;;;;6.70;4.35;;;17.50;41.60;;;;;;5052157;28;20378;-81
2021/04/24 11:11:17;;;;;;;7.38;4.35;;;17.20;42.10;;;;;;5059428;28;20032;-82
2021/04/24 11:14:04;;;;;;;8.57;4.63;;;17.00;42.40;;;;;;5062207;28;20497;-81
2021/04/24 11:16:32;;;;;;;7.38;4.00;;;17.40;42.20;;;;;;5061594;28;20051;-82
2021/04/24 11:18:59;;;;;;;7.80;4.65;;;17.70;41.40;;;;;;5060833;28;20045;-83
2021/04/24 11:21:30;;;;;;;8.90;4.55;;;17.50;40.70;;;;;;5064467;28;20028;-84
2021/04/24 11:23:59;;;;;;;;;;;17.40;41.70;;;;;;5051683;28;20029;-81
2021/04/24 11:26:31;;;;;;;8.38;4.13;;;17.20;41.20;;;;;;5066527;28;19931;-81
2021/04/24 11:28:57;;;;;;;6.55;4.35;;;17.40;40.50;;;;;;5057826;28;20375;-82
2021/04/24 11:31:42;;;;;;;9.85;4.72;;;17.60;41.90;;;;;;5062340;28;20044;-82
2021/04/24 11:34:25;;;;;;;9.10;4.47;;;18.00;40.50;;;;;;5061883;28;20052;-83
2021/04/24 11:37:31;;;;;;;8.32;4.47;;;17.70;40.80;;;;;;5061215;28;20040;-82
2021/04/24 11:40:11;;;;;;;7.07;4.05;;;17.70;40.80;;;;;;5064819;28;20056;-82
2021/04/24 11:42:57;;;;;;;10.97;4.07;;;17.40;41.20;;;;;;5057719;28;20044;-81
2021/04/24 11:45:44;;;;;;;8.90;4.55;;;17.50;40.30;;;;;;5055490;28;20037;-79
2021/04/24 11:48:11;;;;;;;11.07;6.78;;;17.40;40.70;;;;;;5071720;28;20039;-77
2021/04/24 11:50:39;;;;;;;8.75;4.10;;;17.90;40.90;;;;;;5061313;28;20033;-77
2021/04/24 11:53:06;;;;;;;10.38;4.05;;;18.20;40.40;;;;;;5067108;28;20104;-78
2021/04/24 11:55:32;;;;;;;8.93;4.00;;;18.50;40.30;;;;;;5060031;28;20060;-77
2021/04/24 11:58:07;;;;;;;9.77;4.03;;;18.10;40.30;;;;;;5066161;28;20033;-76
2021/04/24 12:00:34;;;;;;;10.25;5.07;;;18.20;40.00;;;;;;5057809;28;20029;-78
2021/04/24 12:03:00;;;;;;;7.78;4.13;;;18.00;40.00;;;;;;5074267;28;20040;-78
2021/04/24 12:05:27;;;;;;;8.30;4.93;;;17.90;40.30;;;;;;5055208;28;20388;-77
2021/04/24 12:07:53;;;;;;;10.57;7.05;;;18.00;39.50;;;;;;5055395;28;20029;-78
2021/04/24 12:10:29;;;;;;;26.35;19.33;;;17.90;40.20;;;;;;5069724;28;20028;-80
2021/04/24 12:13:13;;;;;;;12.30;8.25;;;17.90;40.20;;;;;;5054964;28;20398;-77
2021/04/24 12:15:39;;;;;;;7.72;4.70;;;17.60;40.20;;;;;;5055437;28;20040;-78
2021/04/24 12:18:06;;;;;;;13.23;6.50;;;17.60;39.80;;;;;;5054968;28;20378;-78
2021/04/24 12:20:34;;;;;;;9.27;5.13;;;17.60;40.30;;;;;;5055166;28;20052;-78
2021/04/24 12:23:05;;;;;;;8.82;5.28;;;17.90;40.10;;;;;;5057072;28;20738;-77
2021/04/24 12:25:32;;;;;;;;;;;17.60;40.00;;;;;;5062851;28;20037;-78
2021/04/24 12:28:01;;;;;;;9.02;5.00;;;17.70;40.40;;;;;;5058482;28;19931;-78
2021/04/24 12:30:36;;;;;;;8.15;4.55;;;17.70;40.90;;;;;;5056702;28;20052;-77
2021/04/24 12:33:09;;;;;;;8.25;4.63;;;17.70;39.80;;;;;;5062144;28;20393;-77
2021/04/24 12:35:41;;;;;;;11.15;5.47;;;17.60;40.30;;;;;;5060564;28;20044;-78
2021/04/24 12:38:16;;;;;;;11.15;6.70;;;18.00;40.40;;;;;;5055467;28;20489;-78
2021/04/24 12:40:51;;;;;;;12.68;6.72;;;18.00;40.20;;;;;;5054930;28;20040;-77
2021/04/24 12:43:31;;;;;;;11.68;6.75;;;18.00;40.90;;;;;;5062789;28;20045;-77
2021/04/24 12:45:59;;;;;;;10.05;5.68;;;18.10;41.20;;;;;;5054195;28;20033;-76
2021/04/24 12:48:46;;;;;;;8.05;4.85;;;17.80;40.50;;;;;;5054590;28;20033;-77
2021/04/24 12:51:14;;;;;;;10.23;6.25;;;17.90;40.10;;;;;;5054582;28;20466;-78
2021/04/24 12:53:44;;;;;;;12.68;7.18;;;17.80;40.80;;;;;;5054828;28;20059;-79
2021/04/24 12:56:12;;;;;;;10.25;6.03;;;18.20;40.80;;;;;;5053291;28;20052;-78